createdAt,value
2022-09-11T00:02:01.426Z,98164.09
2022-09-11T00:04:27.781Z,98167.63
2022-09-11T00:06:54.110Z,98168.09
2022-09-11T00:09:20.442Z,98165.25
2022-09-11T00:11:46.761Z,98166.44
2022-09-11T00:14:13.769Z,98171.25
2022-09-11T00:16:41.478Z,98174.41
2022-09-11T00:19:08.855Z,98169.63
2022-09-11T00:21:35.244Z,98167.66
2022-09-11T00:24:01.663Z,98167.59
2022-09-11T00:26:27.999Z,98165.53
2022-09-11T00:28:55.229Z,98179.94
2022-09-11T00:31:22.624Z,98177.00
2022-09-11T00:33:49.165Z,98180.63
2022-09-11T00:36:16.253Z,98180.59
2022-09-11T00:38:42.872Z,98179.41
2022-09-11T00:41:19.117Z,98175.00
2022-09-11T00:43:55.208Z,98183.00
2022-09-11T00:46:22.319Z,98184.53
2022-09-11T00:48:49.994Z,98194.03
2022-09-11T00:51:24.599Z,98190.78
2022-09-11T00:53:51.054Z,98192.25
2022-09-11T00:56:17.963Z,98195.81
2022-09-11T00:58:44.368Z,98189.84
2022-09-11T01:01:11.047Z,98201.00
2022-09-11T01:03:37.426Z,98202.56
2022-09-11T01:06:03.766Z,98205.78
2022-09-11T01:08:30.077Z,98205.34
2022-09-11T01:10:56.399Z,98207.72
2022-09-11T01:13:34.074Z,98203.19
2022-09-11T01:16:09.686Z,98199.53
2022-09-11T01:18:45.298Z,98206.41
2022-09-11T01:21:34.369Z,98194.81
2022-09-11T01:24:04.313Z,98203.25
2022-09-11T01:26:43.009Z,98206.84
2022-09-11T01:29:12.718Z,98211.19
2022-09-11T01:31:43.128Z,98218.47
2022-09-11T01:34:10.157Z,98206.84
2022-09-11T01:36:38.656Z,98214.69
2022-09-11T01:39:05.018Z,98208.78
2022-09-11T01:41:50.239Z,98220.28
2022-09-11T01:44:22.932Z,98224.25
2022-09-11T01:46:50.824Z,98217.28
2022-09-11T01:49:32.252Z,98223.72
2022-09-11T01:52:00.654Z,98222.16
2022-09-11T01:54:29.643Z,98229.78
2022-09-11T01:56:57.379Z,98225.38
2022-09-11T01:59:28.723Z,98234.06
2022-09-11T02:01:58.245Z,98232.41
2022-09-11T02:04:27.082Z,98241.13
2022-09-11T02:07:05.105Z,98248.22
2022-09-11T02:09:32.718Z,98249.50
2022-09-11T02:11:59.469Z,98251.06
2022-09-11T02:14:28.980Z,98254.59
2022-09-11T02:17:14.171Z,98247.84
2022-09-11T02:19:41.197Z,98253.44
2022-09-11T02:22:07.767Z,98256.72
2022-09-11T02:24:34.104Z,98253.56
2022-09-11T02:27:23.759Z,98255.97
2022-09-11T02:29:50.259Z,98263.84
2022-09-11T02:32:17.024Z,98266.28
2022-09-11T02:34:43.400Z,98257.13
2022-09-11T02:37:18.681Z,98257.50
2022-09-11T02:39:56.964Z,98264.69
2022-09-11T02:42:23.240Z,98268.31
2022-09-11T02:44:55.825Z,98268.69
2022-09-11T02:47:25.132Z,98270.69
2022-09-11T02:50:00.734Z,98270.66
2022-09-11T02:52:43.156Z,98278.56
2022-09-11T02:55:25.288Z,98270.31
2022-09-11T02:57:54.215Z,98282.16
2022-09-11T03:00:20.839Z,98276.28
2022-09-11T03:02:47.159Z,98269.06
2022-09-11T03:05:13.540Z,98278.22
2022-09-11T03:07:39.890Z,98279.41
2022-09-11T03:10:06.524Z,98276.63
2022-09-11T03:12:34.281Z,98278.97
2022-09-11T03:15:01.657Z,98283.38
2022-09-11T03:17:27.972Z,98278.44
2022-09-11T03:19:54.306Z,98291.22
2022-09-11T03:22:20.640Z,98283.88
2022-09-11T03:24:48.089Z,98284.75
2022-09-11T03:27:14.408Z,98291.97
2022-09-11T03:29:40.915Z,98292.00
2022-09-11T03:32:07.235Z,98300.00
2022-09-11T03:34:34.319Z,98300.19
2022-09-11T03:37:00.645Z,98290.56
2022-09-11T03:39:26.997Z,98299.63
2022-09-11T03:41:54.172Z,98293.25
2022-09-11T03:44:21.497Z,98299.59
2022-09-11T03:46:47.802Z,98290.53
2022-09-11T03:49:14.259Z,98303.66
2022-09-11T03:51:40.574Z,98293.31
2022-09-11T03:54:07.505Z,98293.63
2022-09-11T03:56:33.822Z,98298.47
2022-09-11T03:59:00.195Z,98299.59
2022-09-11T04:01:26.616Z,98298.41
2022-09-11T04:03:53.252Z,98296.41
2022-09-11T04:06:20.286Z,98298.41
2022-09-11T04:08:46.594Z,98298.19
2022-09-11T04:11:14.148Z,98289.41
2022-09-11T04:13:40.822Z,98295.81
2022-09-11T04:16:19.832Z,98303.00
2022-09-11T04:18:46.212Z,98305.03
2022-09-11T04:21:13.306Z,98308.38
2022-09-11T04:23:39.841Z,98296.84
2022-09-11T04:26:14.302Z,98300.88
2022-09-11T04:28:41.020Z,98298.00
2022-09-11T04:31:07.388Z,98308.25
2022-09-11T04:33:34.734Z,98302.31
2022-09-11T04:36:04.140Z,98305.53
2022-09-11T04:38:30.469Z,98306.97
2022-09-11T04:40:59.701Z,98301.44
2022-09-11T04:43:26.021Z,98305.03
2022-09-11T04:45:53.932Z,98300.75
2022-09-11T04:48:20.298Z,98311.91
2022-09-11T04:50:48.170Z,98315.41
2022-09-11T04:53:14.503Z,98314.16
2022-09-11T04:55:40.871Z,98324.63
2022-09-11T04:58:07.624Z,98330.66
2022-09-11T05:00:35.216Z,98329.78
2022-09-11T05:03:04.457Z,98339.41
2022-09-11T05:05:30.854Z,98336.03
2022-09-11T05:07:57.188Z,98343.25
2022-09-11T05:10:23.528Z,98344.56
2022-09-11T05:12:51.237Z,98354.84
2022-09-11T05:15:17.560Z,98349.44
2022-09-11T05:17:43.946Z,98355.03
2022-09-11T05:20:11.987Z,98356.97
2022-09-11T05:22:38.637Z,98356.16
2022-09-11T05:25:04.998Z,98360.88
2022-09-11T05:27:31.333Z,98358.63
2022-09-11T05:29:57.678Z,98352.94
2022-09-11T05:32:24.155Z,98358.63
2022-09-11T05:34:50.739Z,98363.06
2022-09-11T05:37:17.110Z,98362.69
2022-09-11T05:39:43.468Z,98373.03
2022-09-11T05:42:09.901Z,98376.75
2022-09-11T05:44:36.983Z,98372.34
2022-09-11T05:47:04.539Z,98376.03
2022-09-11T05:49:30.962Z,98380.53
2022-09-11T05:51:57.293Z,98379.81
2022-09-11T05:54:23.692Z,98378.66
2022-09-11T05:56:50.054Z,98388.91
2022-09-11T05:59:16.423Z,98395.84
2022-09-11T06:01:43.211Z,98398.56
2022-09-11T06:04:10.248Z,98397.44
2022-09-11T06:06:36.560Z,98395.09
2022-09-11T06:09:02.927Z,98402.31
2022-09-11T06:11:29.301Z,98411.09
2022-09-11T06:13:55.669Z,98409.63
2022-09-11T06:16:22.595Z,98408.75
2022-09-11T06:18:49.670Z,98406.81
2022-09-11T06:21:19.160Z,98412.94
2022-09-11T06:23:46.039Z,98412.13
2022-09-11T06:26:12.966Z,98420.22
2022-09-11T06:28:39.307Z,98419.28
2022-09-11T06:31:06.320Z,98428.03
2022-09-11T06:33:33.732Z,98422.88
2022-09-11T06:36:00.559Z,98420.53
2022-09-11T06:38:27.096Z,98425.69
2022-09-11T06:40:53.868Z,98414.53
2022-09-11T06:43:20.244Z,98429.72
2022-09-11T06:45:48.285Z,98418.66
2022-09-11T06:48:15.265Z,98419.34
2022-09-11T06:50:41.631Z,98424.81
2022-09-11T06:53:08.398Z,98416.34
2022-09-11T06:55:34.818Z,98427.31
2022-09-11T06:58:02.223Z,98425.53
2022-09-11T07:00:28.679Z,98427.19
2022-09-11T07:02:55.084Z,98430.00
2022-09-11T07:05:22.395Z,98432.72
2022-09-11T07:07:50.388Z,98436.75
2022-09-11T07:10:16.976Z,98435.81
2022-09-11T07:12:43.294Z,98433.44
2022-09-11T07:15:09.831Z,98438.19
2022-09-11T07:17:36.452Z,98438.16
2022-09-11T07:20:06.676Z,98436.94
2022-09-11T07:22:33.874Z,98447.44
2022-09-11T07:25:02.805Z,98442.63
2022-09-11T07:27:33.532Z,98443.44
2022-09-11T07:29:59.882Z,98446.94
2022-09-11T07:32:27.094Z,98458.78
2022-09-11T07:34:53.448Z,98455.66
2022-09-11T07:37:19.763Z,98465.94
2022-09-11T07:39:47.042Z,98461.16
2022-09-11T07:42:13.433Z,98467.53
2022-09-11T07:44:39.789Z,98469.53
2022-09-11T07:47:06.598Z,98479.91
2022-09-11T07:49:32.948Z,98483.44
2022-09-11T07:51:59.352Z,98479.47
2022-09-11T07:54:29.004Z,98478.97
2022-09-11T07:56:56.084Z,98480.81
2022-09-11T07:59:22.839Z,98490.75
2022-09-11T08:01:50.182Z,98481.88
2022-09-11T08:04:16.529Z,98492.88
2022-09-11T08:06:42.854Z,98496.63
2022-09-11T08:09:10.184Z,98507.03
2022-09-11T08:11:37.127Z,98506.03
2022-09-11T08:14:03.458Z,98515.84
2022-09-11T08:16:29.986Z,98509.47
2022-09-11T08:18:56.945Z,98513.94
2022-09-11T08:21:23.410Z,98513.13
2022-09-11T08:23:49.739Z,98519.75
2022-09-11T08:26:17.921Z,98529.81
2022-09-11T08:28:44.924Z,98526.81
2022-09-11T08:31:11.647Z,98524.28
2022-09-11T08:33:38.047Z,98532.78
2022-09-11T08:36:05.468Z,98530.72
2022-09-11T08:38:31.816Z,98544.25
2022-09-11T08:40:58.952Z,98538.91
2022-09-11T08:43:30.196Z,98546.56
2022-09-11T08:45:59.001Z,98545.38
2022-09-11T08:48:28.208Z,98542.69
2022-09-11T08:50:54.663Z,98551.81
2022-09-11T08:53:21.004Z,98547.38
2022-09-11T08:56:00.304Z,98548.25
2022-09-11T08:58:29.177Z,98548.31
2022-09-11T09:01:09.391Z,98544.84
2022-09-11T09:03:53.002Z,98541.91
2022-09-11T09:06:34.756Z,98549.00
2022-09-11T09:09:01.063Z,98552.25
2022-09-11T09:11:30.347Z,98550.78
2022-09-11T09:14:11.835Z,98558.41
2022-09-11T09:16:55.728Z,98558.41
2022-09-11T09:19:34.466Z,98555.56
2022-09-11T09:22:16.141Z,98558.66
2022-09-11T09:24:43.610Z,98558.66
2022-09-11T09:27:12.653Z,98564.09
2022-09-11T09:29:39.047Z,98559.22
2022-09-11T09:32:06.456Z,98575.38
2022-09-11T09:34:34.721Z,98563.94
2022-09-11T09:37:13.946Z,98568.72
2022-09-11T09:39:40.375Z,98567.66
2022-09-11T09:42:08.381Z,98572.28
2022-09-11T09:44:57.976Z,98572.72
2022-09-11T09:47:24.295Z,98580.28
2022-09-11T09:49:52.657Z,98577.81
2022-09-11T09:52:20.253Z,98576.56
2022-09-11T09:54:53.149Z,98571.84
2022-09-11T09:57:23.567Z,98584.38
2022-09-11T09:59:56.553Z,98578.88
2022-09-11T10:02:43.251Z,98587.63
2022-09-11T10:05:13.961Z,98583.59
2022-09-11T10:07:47.008Z,98584.31
2022-09-11T10:10:21.245Z,98584.31
2022-09-11T10:12:47.591Z,98589.72
2022-09-11T10:15:22.165Z,98586.25
2022-09-11T10:17:48.735Z,98585.50
2022-09-11T10:20:26.630Z,98593.50
2022-09-11T10:22:53.630Z,98585.75
2022-09-11T10:25:23.038Z,98589.50
2022-09-11T10:28:03.485Z,98595.66
2022-09-11T10:30:36.743Z,98596.84
2022-09-11T10:33:05.110Z,98584.13
2022-09-11T10:35:31.634Z,98593.75
2022-09-11T10:38:11.692Z,98589.97
2022-09-11T10:40:40.255Z,98592.16
2022-09-11T10:43:16.972Z,98593.88
2022-09-11T10:45:44.278Z,98600.72
2022-09-11T10:48:19.677Z,98598.06
2022-09-11T10:50:46.049Z,98600.53
2022-09-11T10:53:12.294Z,98600.69
2022-09-11T10:55:40.218Z,98604.81
2022-09-11T10:58:17.302Z,98611.00
2022-09-11T11:00:44.981Z,98601.06
2022-09-11T11:03:12.543Z,98606.63
2022-09-11T11:05:44.771Z,98608.53
2022-09-11T11:08:17.731Z,98605.66
2022-09-11T11:11:03.843Z,98613.56
2022-09-11T11:13:49.312Z,98615.69
2022-09-11T11:16:18.937Z,98622.72
2022-09-11T11:18:52.179Z,98611.28
2022-09-11T11:21:24.936Z,98615.34
2022-09-11T11:23:54.588Z,98620.63
2022-09-11T11:26:20.870Z,98623.13
2022-09-11T11:28:55.260Z,98617.94
2022-09-11T11:31:24.735Z,98623.78
2022-09-11T11:34:00.293Z,98629.66
2022-09-11T11:36:46.045Z,98624.72
2022-09-11T11:39:17.534Z,98627.41
2022-09-11T11:41:49.027Z,98631.13
2022-09-11T11:44:25.077Z,98631.41
2022-09-11T11:46:52.256Z,98630.94
2022-09-11T11:49:19.685Z,98632.16
2022-09-11T11:51:52.091Z,98635.13
2022-09-11T11:54:25.824Z,98643.25
2022-09-11T11:57:02.315Z,98638.53
2022-09-11T11:59:31.181Z,98636.53
2022-09-11T12:01:59.790Z,98632.50
2022-09-11T12:04:26.414Z,98637.34
2022-09-11T12:06:52.770Z,98633.97
2022-09-11T12:09:19.153Z,98626.78
2022-09-11T12:11:46.342Z,98626.94
2022-09-11T12:14:39.011Z,98630.00
2022-09-11T12:17:18.005Z,98637.72
2022-09-11T12:20:03.835Z,98634.56
2022-09-11T12:22:33.734Z,98632.59
2022-09-11T12:25:00.321Z,98633.75
2022-09-11T12:27:34.883Z,98626.84
2022-09-11T12:30:16.713Z,98616.91
2022-09-11T12:32:43.991Z,98625.31
2022-09-11T12:35:24.484Z,98632.34
2022-09-11T12:37:54.228Z,98625.69
2022-09-11T12:40:25.374Z,98621.16
2022-09-11T12:42:55.867Z,98630.88
2022-09-11T12:45:33.239Z,98633.69
2022-09-11T12:48:04.048Z,98626.19
2022-09-11T12:50:30.451Z,98639.50
2022-09-11T12:53:02.217Z,98628.31
2022-09-11T12:55:39.627Z,98633.50
2022-09-11T12:58:07.048Z,98629.81
2022-09-11T13:00:38.279Z,98630.22
2022-09-11T13:03:05.050Z,98632.63
2022-09-11T13:05:36.962Z,98623.84
2022-09-11T13:08:24.078Z,98621.09
2022-09-11T13:10:50.437Z,98609.53
2022-09-11T13:13:34.599Z,98617.56
2022-09-11T13:16:19.296Z,98613.16
2022-09-11T13:18:45.727Z,98609.88
2022-09-11T13:21:13.166Z,98606.88
2022-09-11T13:23:39.866Z,98600.56
2022-09-11T13:26:07.702Z,98601.75
2022-09-11T13:28:37.103Z,98607.41
2022-09-11T13:31:05.015Z,98603.63
2022-09-11T13:33:32.030Z,98591.91
2022-09-11T13:35:58.695Z,98600.59
2022-09-11T13:38:26.515Z,98598.25
2022-09-11T13:40:59.795Z,98597.84
2022-09-11T13:43:30.701Z,98596.69
2022-09-11T13:46:15.495Z,98590.66
2022-09-11T13:48:43.227Z,98591.84
2022-09-11T13:51:16.502Z,98592.19
2022-09-11T13:53:43.080Z,98584.56
2022-09-11T13:56:20.905Z,98584.56
2022-09-11T13:58:51.528Z,98588.53
2022-09-11T14:01:19.896Z,98583.22
2022-09-11T14:03:46.346Z,98580.41
2022-09-11T14:06:18.967Z,98581.25
2022-09-11T14:08:49.888Z,98580.38
2022-09-11T14:11:23.194Z,98569.88
2022-09-11T14:13:50.971Z,98570.63
2022-09-11T14:16:17.287Z,98568.84
2022-09-11T14:18:46.106Z,98574.94
2022-09-11T14:21:16.149Z,98571.63
2022-09-11T14:23:44.571Z,98572.38
2022-09-11T14:26:11.091Z,98565.94
2022-09-11T14:28:43.392Z,98574.78
2022-09-11T14:31:11.099Z,98567.34
2022-09-11T14:33:37.598Z,98572.75
2022-09-11T14:36:10.315Z,98575.72
2022-09-11T14:38:37.986Z,98576.97
2022-09-11T14:41:05.075Z,98569.34
2022-09-11T14:43:32.575Z,98572.94
2022-09-11T14:45:59.641Z,98574.16
2022-09-11T14:48:26.710Z,98568.16
2022-09-11T14:50:53.079Z,98570.53
2022-09-11T14:53:22.802Z,98566.13
2022-09-11T14:55:51.347Z,98565.72
2022-09-11T14:58:17.657Z,98556.47
2022-09-11T15:00:44.199Z,98567.31
2022-09-11T15:03:10.606Z,98556.88
2022-09-11T15:05:37.967Z,98563.31
2022-09-11T15:08:05.530Z,98556.88
2022-09-11T15:10:33.002Z,98560.50
2022-09-11T15:12:59.764Z,98570.16
2022-09-11T15:15:27.515Z,98562.13
2022-09-11T15:17:54.506Z,98562.13
2022-09-11T15:20:21.156Z,98558.06
2022-09-11T15:22:48.552Z,98544.78
2022-09-11T15:25:14.946Z,98547.94
2022-09-11T15:27:41.263Z,98543.97
2022-09-11T15:30:07.744Z,98544.81
2022-09-11T15:32:34.262Z,98538.78
2022-09-11T15:35:00.818Z,98535.97
2022-09-11T15:37:28.334Z,98541.22
2022-09-11T15:39:54.733Z,98532.81
2022-09-11T15:42:21.101Z,98541.19
2022-09-11T15:44:47.919Z,98535.97
2022-09-11T15:47:14.236Z,98526.72
2022-09-11T15:49:41.095Z,98527.88
2022-09-11T15:52:07.428Z,98533.88
2022-09-11T15:54:33.751Z,98529.47
2022-09-11T15:57:00.135Z,98525.03
2022-09-11T15:59:26.488Z,98532.56
2022-09-11T16:01:52.835Z,98520.84
2022-09-11T16:04:20.207Z,98528.47
2022-09-11T16:06:47.590Z,98529.25
2022-09-11T16:09:15.057Z,98521.97
2022-09-11T16:11:41.572Z,98524.81
2022-09-11T16:14:08.119Z,98529.19
2022-09-11T16:16:34.606Z,98523.63
2022-09-11T16:19:01.719Z,98524.81
2022-09-11T16:21:28.533Z,98526.78
2022-09-11T16:24:00.628Z,98519.09
2022-09-11T16:26:29.092Z,98511.84
2022-09-11T16:28:55.488Z,98513.75
2022-09-11T16:31:23.178Z,98507.69
2022-09-11T16:33:49.895Z,98504.44
2022-09-11T16:36:20.191Z,98510.06
2022-09-11T16:38:46.643Z,98498.81
2022-09-11T16:41:14.105Z,98513.19
2022-09-11T16:43:40.547Z,98503.81
2022-09-11T16:46:07.348Z,98498.19
2022-09-11T16:48:33.697Z,98496.09
2022-09-11T16:51:00.685Z,98501.53
2022-09-11T16:53:27.849Z,98497.34
2022-09-11T16:55:54.217Z,98500.44
2022-09-11T16:58:20.551Z,98492.75
2022-09-11T17:00:46.954Z,98492.97
2022-09-11T17:03:13.503Z,98492.97
2022-09-11T17:05:49.432Z,98486.41
2022-09-11T17:08:15.846Z,98484.50
2022-09-11T17:10:43.204Z,98495.94
2022-09-11T17:13:10.100Z,98484.50
2022-09-11T17:15:36.574Z,98488.81
2022-09-11T17:18:02.954Z,98489.56
2022-09-11T17:20:29.269Z,98494.03
2022-09-11T17:22:58.033Z,98493.00
2022-09-11T17:25:25.767Z,98491.66
2022-09-11T17:27:52.118Z,98500.22
2022-09-11T17:30:18.795Z,98497.84
2022-09-11T17:32:45.127Z,98494.25
2022-09-11T17:35:11.621Z,98491.91
2022-09-11T17:37:37.996Z,98491.06
2022-09-11T17:40:04.809Z,98484.13
2022-09-11T17:42:32.378Z,98487.63
2022-09-11T17:44:59.061Z,98485.16
2022-09-11T17:47:25.876Z,98487.91
2022-09-11T17:49:52.184Z,98480.13
2022-09-11T17:52:21.142Z,98483.94
2022-09-11T17:54:47.514Z,98499.50
2022-09-11T17:57:15.528Z,98488.28
2022-09-11T17:59:45.087Z,98494.22
2022-09-11T18:02:14.203Z,98490.97
2022-09-11T18:04:40.634Z,98484.50
2022-09-11T18:07:06.993Z,98496.19
2022-09-11T18:09:33.345Z,98492.81
2022-09-11T18:11:59.722Z,98502.13
2022-09-11T18:14:27.753Z,98501.56
2022-09-11T18:16:54.209Z,98500.34
2022-09-11T18:19:20.547Z,98503.47
2022-09-11T18:21:50.195Z,98503.13
2022-09-11T18:24:19.901Z,98498.09
2022-09-11T18:26:47.041Z,98503.91
2022-09-11T18:29:14.112Z,98506.66
2022-09-11T18:31:41.195Z,98508.97
2022-09-11T18:34:07.556Z,98511.19
2022-09-11T18:36:33.935Z,98508.97
2022-09-11T18:39:03.846Z,98512.00
2022-09-11T18:41:31.013Z,98515.41
2022-09-11T18:43:57.653Z,98511.88
2022-09-11T18:46:24.168Z,98520.06
2022-09-11T18:48:50.508Z,98524.06
2022-09-11T18:51:17.035Z,98524.13
2022-09-11T18:53:43.546Z,98520.44
2022-09-11T18:56:10.029Z,98520.75
2022-09-11T18:58:37.453Z,98522.66
2022-09-11T19:01:07.461Z,98527.63
2022-09-11T19:03:33.988Z,98525.16
2022-09-11T19:06:04.388Z,98532.22
2022-09-11T19:08:31.816Z,98531.63
2022-09-11T19:11:00.098Z,98534.72
2022-09-11T19:13:26.711Z,98539.13
2022-09-11T19:15:56.819Z,98533.41
2022-09-11T19:18:24.362Z,98543.00
2022-09-11T19:21:01.935Z,98537.56
2022-09-11T19:23:31.685Z,98541.38
2022-09-11T19:26:02.922Z,98539.75
2022-09-11T19:28:29.999Z,98548.97
2022-09-11T19:31:00.764Z,98544.84
2022-09-11T19:33:29.686Z,98538.72
2022-09-11T19:35:57.328Z,98546.84
2022-09-11T19:38:26.699Z,98541.69
2022-09-11T19:40:53.021Z,98544.50
2022-09-11T19:43:23.583Z,98544.22
2022-09-11T19:45:50.472Z,98549.78
2022-09-11T19:48:17.047Z,98538.13
2022-09-11T19:50:46.354Z,98551.00
2022-09-11T19:53:13.540Z,98547.47
2022-09-11T19:55:39.855Z,98549.22
2022-09-11T19:58:06.238Z,98542.34
2022-09-11T20:00:35.087Z,98538.84
2022-09-11T20:03:01.491Z,98540.94
2022-09-11T20:05:27.820Z,98540.34
2022-09-11T20:07:55.642Z,98548.97
2022-09-11T20:10:23.701Z,98547.78
2022-09-11T20:12:50.445Z,98545.19
2022-09-11T20:15:16.782Z,98546.28
2022-09-11T20:17:44.767Z,98541.03
2022-09-11T20:20:11.829Z,98540.53
2022-09-11T20:22:38.329Z,98539.44
2022-09-11T20:25:04.823Z,98538.47
2022-09-11T20:27:31.187Z,98547.88
2022-09-11T20:29:57.508Z,98548.34
2022-09-11T20:32:24.026Z,98539.97
2022-09-11T20:34:50.403Z,98538.28
2022-09-11T20:37:16.740Z,98546.19
2022-09-11T20:39:43.110Z,98550.81
2022-09-11T20:42:09.484Z,98552.28
2022-09-11T20:44:37.225Z,98546.63
2022-09-11T20:47:03.756Z,98544.38
2022-09-11T20:49:30.658Z,98536.34
2022-09-11T20:51:56.982Z,98541.97
2022-09-11T20:54:23.346Z,98535.91
2022-09-11T20:56:49.687Z,98538.81
2022-09-11T20:59:16.171Z,98531.03
2022-09-11T21:01:43.272Z,98532.66
2022-09-11T21:04:09.656Z,98528.34
2022-09-11T21:06:36.024Z,98528.44
2022-09-11T21:09:06.491Z,98528.00
2022-09-11T21:11:32.983Z,98533.53
2022-09-11T21:13:59.327Z,98537.84
2022-09-11T21:16:25.721Z,98532.56
2022-09-11T21:18:52.832Z,98524.72
2022-09-11T21:21:19.284Z,98527.72
2022-09-11T21:23:45.724Z,98527.75
2022-09-11T21:26:13.370Z,98528.84
2022-09-11T21:28:39.711Z,98523.44
2022-09-11T21:31:06.108Z,98522.25
2022-09-11T21:33:32.705Z,98520.38
2022-09-11T21:35:59.075Z,98512.53
2022-09-11T21:38:25.932Z,98521.91
2022-09-11T21:40:52.251Z,98517.94
2022-09-11T21:43:18.574Z,98518.94
2022-09-11T21:45:44.978Z,98511.84
2022-09-11T21:48:11.355Z,98517.94
2022-09-11T21:50:37.947Z,98505.53
2022-09-11T21:53:04.419Z,98502.38
2022-09-11T21:55:30.768Z,98505.81
2022-09-11T21:57:57.827Z,98509.41
2022-09-11T22:00:24.395Z,98516.16
2022-09-11T22:02:50.723Z,98510.59
2022-09-11T22:05:17.031Z,98511.97
2022-09-11T22:07:43.502Z,98506.84
2022-09-11T22:10:09.820Z,98503.97
2022-09-11T22:12:36.337Z,98503.69
2022-09-11T22:15:02.890Z,98496.00
2022-09-11T22:17:29.245Z,98506.34
2022-09-11T22:19:56.087Z,98508.63
2022-09-11T22:22:23.062Z,98508.56
2022-09-11T22:24:49.402Z,98504.16
2022-09-11T22:27:15.781Z,98504.06
2022-09-11T22:29:46.839Z,98501.31
2022-09-11T22:32:13.423Z,98492.31
2022-09-11T22:34:39.744Z,98498.69
2022-09-11T22:37:06.185Z,98497.81
2022-09-11T22:39:32.503Z,98493.91
2022-09-11T22:41:59.667Z,98492.09
2022-09-11T22:44:26.296Z,98489.31
2022-09-11T22:46:52.614Z,98499.97
2022-09-11T22:49:18.930Z,98504.44
2022-09-11T22:51:45.266Z,98504.25
2022-09-11T22:54:12.370Z,98497.44
2022-09-11T22:56:38.686Z,98495.34
2022-09-11T22:59:05.059Z,98497.75
2022-09-11T23:01:31.906Z,98501.72
2022-09-11T23:03:58.297Z,98506.34
2022-09-11T23:06:43.476Z,98503.25
2022-09-11T23:09:10.415Z,98509.56
2022-09-11T23:11:36.807Z,98500.69
2022-09-11T23:14:03.137Z,98500.31
2022-09-11T23:16:29.581Z,98495.19
2022-09-11T23:18:56.619Z,98494.75
2022-09-11T23:21:23.702Z,98499.38
2022-09-11T23:23:54.682Z,98490.34
2022-09-11T23:26:21.474Z,98496.72
2022-09-11T23:28:47.819Z,98495.34
2022-09-11T23:31:15.938Z,98490.94
2022-09-11T23:33:42.317Z,98500.75
2022-09-11T23:36:09.114Z,98500.03
2022-09-11T23:38:35.526Z,98494.38
2022-09-11T23:41:01.864Z,98498.72
2022-09-11T23:43:28.271Z,98498.63
2022-09-11T23:45:54.637Z,98494.22
2022-09-11T23:48:20.982Z,98487.13
2022-09-11T23:50:47.289Z,98501.06
2022-09-11T23:53:13.615Z,98494.50
2022-09-11T23:55:42.357Z,98494.34
2022-09-11T23:58:09.130Z,98489.31
